createdAt,value
2019-06-10T00:04:08.773Z,12.40
2019-06-10T00:09:11.803Z,12.30
2019-06-10T00:14:15.085Z,12.20
2019-06-10T00:19:22.156Z,12.10
2019-06-10T00:24:26.620Z,12.00
2019-06-10T00:29:31.099Z,11.90
2019-06-10T00:34:34.985Z,11.70
2019-06-10T00:39:40.744Z,11.60
2019-06-10T00:44:45.064Z,11.60
2019-06-10T00:49:57.744Z,11.50
2019-06-10T00:55:04.572Z,11.50
2019-06-10T01:00:24.493Z,11.40
2019-06-10T01:05:38.412Z,11.40
2019-06-10T01:10:43.862Z,11.40
2019-06-10T01:15:43.420Z,11.50
2019-06-10T01:20:47.863Z,11.60
2019-06-10T01:25:55.190Z,11.60
2019-06-10T01:31:10.084Z,11.70
2019-06-10T01:36:16.572Z,11.70
2019-06-10T01:41:18.062Z,11.60
2019-06-10T01:46:54.401Z,11.50
2019-06-10T01:52:05.005Z,11.40
2019-06-10T01:57:07.668Z,11.40
2019-06-10T02:02:17.764Z,11.30
2019-06-10T02:07:22.912Z,11.20
2019-06-10T02:12:33.672Z,11.10
2019-06-10T02:17:41.708Z,11.10
2019-06-10T02:22:48.913Z,11.00
2019-06-10T02:27:52.385Z,10.90
2019-06-10T02:32:53.798Z,10.90
2019-06-10T02:37:55.119Z,10.90
2019-06-10T02:43:17.901Z,10.80
2019-06-10T02:48:23.714Z,10.80
2019-06-10T02:53:36.083Z,10.80
2019-06-10T02:58:39.537Z,10.90
2019-06-10T03:03:49.128Z,11.00
2019-06-10T03:09:42.565Z,11.10
2019-06-10T03:14:43.918Z,11.10
2019-06-10T03:19:50.379Z,11.20
2019-06-10T03:24:52.411Z,11.30
2019-06-10T03:29:56.867Z,11.30
2019-06-10T03:35:05.034Z,11.40
2019-06-10T03:40:12.883Z,11.40
2019-06-10T03:45:17.479Z,11.40
2019-06-10T03:50:25.605Z,11.40
2019-06-10T03:55:33.076Z,11.30
2019-06-10T04:00:36.906Z,11.30
2019-06-10T04:05:39.148Z,11.40
2019-06-10T04:10:42.992Z,11.50
2019-06-10T04:15:50.280Z,11.80
2019-06-10T04:20:53.776Z,12.10
2019-06-10T04:26:02.280Z,12.30
2019-06-10T04:31:03.860Z,12.40
2019-06-10T04:36:29.922Z,12.50
2019-06-10T04:41:48.706Z,12.50
2019-06-10T04:47:02.727Z,12.60
2019-06-10T04:52:16.198Z,12.70
2019-06-10T04:57:20.627Z,12.90
2019-06-10T05:02:27.289Z,13.00
2019-06-10T05:07:36.816Z,13.20
2019-06-10T05:12:54.841Z,13.40
2019-06-10T05:17:56.124Z,13.60
2019-06-10T05:23:04.656Z,13.80
2019-06-10T05:28:09.184Z,14.10
2019-06-10T05:33:13.584Z,14.40
2019-06-10T05:38:17.962Z,14.60
2019-06-10T05:43:24.916Z,14.70
2019-06-10T05:48:26.708Z,14.80
2019-06-10T05:53:46.409Z,15.00
2019-06-10T05:59:12.539Z,15.00
2019-06-10T06:04:17.171Z,15.20
2019-06-10T06:09:18.474Z,15.20
2019-06-10T06:14:25.410Z,15.60
2019-06-10T06:19:36.563Z,16.30
2019-06-10T06:24:42.763Z,16.80
2019-06-10T06:29:44.553Z,17.20
2019-06-10T06:34:45.781Z,17.50
2019-06-10T06:39:58.336Z,17.90
2019-06-10T06:45:04.168Z,18.10
2019-06-10T06:50:13.060Z,18.30
2019-06-10T06:55:20.663Z,18.50
2019-06-10T07:00:48.964Z,18.60
2019-06-10T07:05:43.381Z,19.00
2019-06-10T07:10:45.965Z,19.10
2019-06-10T07:16:03.245Z,19.50
2019-06-10T07:21:16.532Z,19.50
2019-06-10T07:26:17.928Z,19.60
2019-06-10T07:31:23.885Z,20.00
2019-06-10T07:36:26.031Z,20.30
2019-06-10T07:41:32.772Z,20.50
2019-06-10T07:46:43.454Z,20.80
2019-06-10T07:51:46.077Z,21.40
2019-06-10T07:56:53.777Z,22.00
2019-06-10T08:02:03.087Z,22.50
2019-06-10T08:07:04.329Z,23.70
2019-06-10T08:12:08.729Z,24.30
2019-06-10T08:17:19.548Z,24.50
2019-06-10T08:22:33.462Z,24.80
2019-06-10T08:27:53.005Z,25.30
2019-06-10T08:32:56.584Z,24.90
2019-06-10T08:37:57.929Z,24.50
2019-06-10T08:42:59.307Z,23.90
2019-06-10T08:48:03.605Z,24.00
2019-06-10T08:53:14.669Z,23.30
2019-06-10T08:58:18.957Z,22.40
2019-06-10T09:03:20.252Z,21.90
2019-06-10T09:08:27.359Z,21.50
2019-06-10T09:13:33.652Z,21.50
2019-06-10T09:18:39.499Z,22.40
2019-06-10T09:23:43.494Z,22.80
2019-06-10T09:28:53.800Z,22.30
2019-06-10T09:33:56.999Z,21.90
2019-06-10T09:39:14.155Z,21.60
2019-06-10T09:44:18.688Z,21.50
2019-06-10T09:49:22.318Z,21.70
2019-06-10T09:54:29.268Z,22.10
2019-06-10T09:59:36.267Z,22.40
2019-06-10T10:04:46.698Z,22.60
2019-06-10T10:09:48.262Z,23.50
2019-06-10T10:14:51.231Z,24.70
2019-06-10T10:19:56.268Z,25.30
2019-06-10T10:24:56.998Z,25.50
2019-06-10T10:29:58.461Z,25.30
2019-06-10T10:35:12.648Z,25.40
2019-06-10T10:40:16.147Z,25.70
2019-06-10T10:45:19.083Z,25.90
2019-06-10T10:50:34.134Z,26.80
2019-06-10T10:55:35.627Z,27.30
2019-06-10T11:00:41.833Z,27.60
2019-06-10T11:05:46.216Z,27.70
2019-06-10T11:10:57.004Z,27.60
2019-06-10T11:15:56.625Z,27.50
2019-06-10T11:21:00.361Z,27.40
2019-06-10T11:26:07.468Z,27.70
2019-06-10T11:31:13.819Z,28.20
2019-06-10T11:36:16.505Z,28.40
2019-06-10T11:41:23.485Z,28.50
2019-06-10T11:46:32.314Z,29.00
2019-06-10T11:51:36.454Z,28.80
2019-06-10T11:56:47.867Z,27.80
2019-06-10T12:02:05.904Z,26.90
2019-06-10T12:07:18.001Z,26.00
2019-06-10T12:12:55.467Z,25.30
2019-06-10T12:18:07.904Z,24.90
2019-06-10T12:23:07.098Z,24.60
2019-06-10T12:28:12.883Z,24.00
2019-06-10T12:33:21.580Z,22.80
2019-06-10T12:38:22.994Z,21.00
2019-06-10T12:43:32.746Z,19.40
2019-06-10T12:48:58.178Z,17.80
2019-06-10T12:54:05.739Z,17.00
2019-06-10T12:59:10.056Z,16.80
2019-06-10T13:04:17.878Z,16.90
2019-06-10T13:09:24.583Z,17.50
2019-06-10T13:14:36.837Z,18.30
2019-06-10T13:19:38.109Z,19.00
2019-06-10T13:24:45.443Z,20.40
2019-06-10T13:30:05.328Z,21.50
2019-06-10T13:35:12.300Z,22.20
2019-06-10T13:40:14.716Z,23.00
2019-06-10T13:45:19.264Z,23.70
2019-06-10T13:50:26.445Z,24.30
2019-06-10T13:55:28.169Z,24.60
2019-06-10T14:00:42.820Z,25.20
2019-06-10T14:05:45.178Z,24.60
2019-06-10T14:10:46.912Z,23.60
2019-06-10T14:16:20.023Z,24.70
2019-06-10T14:21:24.423Z,25.80
2019-06-10T14:26:37.937Z,26.00
2019-06-10T14:31:40.520Z,26.30
2019-06-10T14:36:38.309Z,26.40
2019-06-10T14:41:43.158Z,26.50
2019-06-10T14:46:45.224Z,26.60
2019-06-10T14:51:46.510Z,26.30
2019-06-10T14:56:56.610Z,25.70
2019-06-10T15:01:54.025Z,25.10
2019-06-10T15:06:59.129Z,24.60
2019-06-10T15:12:03.675Z,23.80
2019-06-10T15:17:06.085Z,23.20
2019-06-10T15:22:32.865Z,22.30
2019-06-10T15:27:39.604Z,21.30
2019-06-10T15:32:44.087Z,20.00
2019-06-10T15:37:52.762Z,18.20
2019-06-10T15:42:54.161Z,17.20
2019-06-10T15:47:58.522Z,16.90
2019-06-10T15:53:03.141Z,16.80
2019-06-10T15:58:07.620Z,16.90
2019-06-10T16:03:14.317Z,17.20
2019-06-10T16:08:18.490Z,17.40
2019-06-10T16:13:21.329Z,17.60
2019-06-10T16:18:37.581Z,17.90
2019-06-10T16:23:53.133Z,18.00
2019-06-10T16:28:55.456Z,18.10
2019-06-10T16:34:04.375Z,18.10
2019-06-10T16:39:16.960Z,18.00
2019-06-10T16:44:25.995Z,18.00
2019-06-10T16:49:32.728Z,18.00
2019-06-10T16:54:34.215Z,17.80
2019-06-10T16:59:37.776Z,17.50
2019-06-10T17:04:52.609Z,17.20
2019-06-10T17:09:55.116Z,17.10
2019-06-10T17:15:05.823Z,16.90
2019-06-10T17:20:09.356Z,16.70
2019-06-10T17:25:19.042Z,16.50
2019-06-10T17:30:23.386Z,16.40
2019-06-10T17:35:28.265Z,16.30
2019-06-10T17:40:56.656Z,16.30
2019-06-10T17:46:07.165Z,16.30
2019-06-10T17:51:09.574Z,16.30
2019-06-10T17:56:13.165Z,16.30
2019-06-10T18:01:14.099Z,16.30
2019-06-10T18:06:15.533Z,16.30
2019-06-10T18:11:25.124Z,16.20
2019-06-10T18:16:30.507Z,16.20
2019-06-10T18:21:41.715Z,16.20
2019-06-10T18:27:08.584Z,16.10
2019-06-10T18:32:12.444Z,16.10
2019-06-10T18:37:26.568Z,16.10
2019-06-10T18:42:36.106Z,16.10
2019-06-10T18:47:42.259Z,16.10
2019-06-10T18:52:43.828Z,16.10
2019-06-10T18:57:53.012Z,16.10
2019-06-10T19:03:10.491Z,16.00
2019-06-10T19:08:08.976Z,16.00
2019-06-10T19:13:37.049Z,16.00
2019-06-10T19:18:42.971Z,15.90
2019-06-10T19:23:53.157Z,15.90
2019-06-10T19:29:03.895Z,15.90
2019-06-10T19:34:08.533Z,15.90
2019-06-10T19:39:13.288Z,15.90
2019-06-10T19:44:18.852Z,15.80
2019-06-10T19:49:22.164Z,15.80
2019-06-10T19:54:26.711Z,15.70
2019-06-10T19:59:29.144Z,15.70
2019-06-10T20:04:34.993Z,15.60
2019-06-10T20:09:47.099Z,15.60
2019-06-10T20:14:52.858Z,15.50
2019-06-10T20:20:06.419Z,15.50
2019-06-10T20:25:12.487Z,15.40
2019-06-10T20:30:25.178Z,15.40
2019-06-10T20:35:23.262Z,15.30
2019-06-10T20:40:25.110Z,15.30
2019-06-10T20:45:34.542Z,15.30
2019-06-10T20:50:47.355Z,15.30
2019-06-10T20:55:59.626Z,15.20
2019-06-10T21:01:04.058Z,15.10
2019-06-10T21:06:13.021Z,15.10
2019-06-10T21:12:01.951Z,15.10
2019-06-10T21:17:19.208Z,15.10
2019-06-10T21:22:22.521Z,15.10
2019-06-10T21:27:54.864Z,15.00
2019-06-10T21:32:56.167Z,14.90
2019-06-10T21:38:03.516Z,14.80
2019-06-10T21:43:24.332Z,14.70
2019-06-10T21:48:29.588Z,14.60
2019-06-10T21:53:36.890Z,14.60
2019-06-10T22:05:03.115Z,14.50
2019-06-10T22:10:09.309Z,14.40
2019-06-10T22:15:12.619Z,14.40
2019-06-10T22:20:14.288Z,14.30
2019-06-10T22:25:18.969Z,14.20
2019-06-10T22:30:26.402Z,14.10
2019-06-10T22:35:30.838Z,14.00
2019-06-10T22:40:35.291Z,14.00
2019-06-10T22:45:42.144Z,14.00
2019-06-10T22:50:43.829Z,13.90
2019-06-10T22:55:50.392Z,13.80
2019-06-10T23:00:56.152Z,13.70
2019-06-10T23:06:02.592Z,13.60
2019-06-10T23:11:04.205Z,13.50
2019-06-10T23:16:08.387Z,13.40
2019-06-10T23:21:09.817Z,13.20
2019-06-10T23:26:13.060Z,13.10
2019-06-10T23:31:16.484Z,13.00
2019-06-10T23:36:20.080Z,12.80
2019-06-10T23:41:22.448Z,12.60
2019-06-10T23:46:27.740Z,12.40
2019-06-10T23:51:42.339Z,12.20
2019-06-10T23:56:43.845Z,12.10
